createdAt,value
2019-06-20T00:00:53.481Z,13.15
2019-06-20T00:03:25.423Z,14.43
2019-06-20T00:05:57.403Z,14.85
2019-06-20T00:08:29.376Z,13.13
2019-06-20T00:11:01.347Z,14.05
2019-06-20T00:13:33.319Z,15.32
2019-06-20T00:16:05.329Z,15.38
2019-06-20T00:18:37.282Z,15.45
2019-06-20T00:21:09.285Z,14.47
2019-06-20T00:23:41.246Z,18.10
2019-06-20T00:26:13.353Z,16.62
2019-06-20T00:28:45.318Z,17.80
2019-06-20T00:31:17.294Z,15.38
2019-06-20T00:33:49.255Z,15.78
2019-06-20T00:36:21.291Z,16.02
2019-06-20T00:38:53.267Z,18.15
2019-06-20T00:41:25.229Z,16.10
2019-06-20T00:43:57.188Z,16.23
2019-06-20T00:46:29.203Z,15.90
2019-06-20T00:49:01.187Z,17.67
2019-06-20T00:52:04.697Z,16.25
2019-06-20T00:54:36.678Z,14.47
2019-06-20T00:57:08.662Z,15.70
2019-06-20T00:59:40.628Z,18.67
2019-06-20T01:02:12.584Z,16.45
2019-06-20T01:04:44.527Z,18.12
2019-06-20T01:07:16.511Z,19.25
2019-06-20T01:09:48.480Z,17.10
2019-06-20T01:12:20.619Z,18.05
2019-06-20T01:14:52.554Z,15.45
2019-06-20T01:17:24.549Z,18.30
2019-06-20T01:19:58.316Z,18.73
2019-06-20T01:22:30.385Z,18.75
2019-06-20T01:25:02.333Z,19.12
2019-06-20T01:27:34.700Z,18.52
2019-06-20T01:30:07.200Z,17.52
2019-06-20T01:32:39.175Z,17.15
2019-06-20T01:35:11.335Z,18.30
2019-06-20T01:37:43.327Z,18.35
2019-06-20T01:40:15.291Z,17.85
2019-06-20T01:42:47.254Z,18.20
2019-06-20T01:45:19.198Z,17.67
2019-06-20T01:47:51.160Z,18.70
2019-06-20T01:50:23.112Z,16.90
2019-06-20T01:52:55.078Z,18.95
2019-06-20T01:55:27.033Z,17.32
2019-06-20T01:57:58.984Z,16.62
2019-06-20T02:00:42.993Z,14.38
2019-06-20T02:03:15.548Z,13.80
2019-06-20T02:05:47.790Z,14.60
2019-06-20T02:08:19.780Z,14.07
2019-06-20T02:10:51.745Z,15.03
2019-06-20T02:13:23.710Z,17.00
2019-06-20T02:15:55.696Z,17.65
2019-06-20T02:18:27.682Z,18.32
2019-06-20T02:20:59.632Z,16.55
2019-06-20T02:23:31.607Z,15.20
2019-06-20T02:26:03.612Z,17.10
2019-06-20T02:28:35.636Z,16.02
2019-06-20T02:31:07.626Z,17.85
2019-06-20T02:33:39.590Z,17.25
2019-06-20T02:36:11.565Z,16.45
2019-06-20T02:38:43.509Z,17.00
2019-06-20T02:41:15.469Z,17.30
2019-06-20T02:43:47.456Z,16.80
2019-06-20T02:46:19.442Z,15.95
2019-06-20T02:48:51.419Z,17.37
2019-06-20T02:51:24.806Z,17.35
2019-06-20T02:53:56.773Z,16.90
2019-06-20T02:56:28.747Z,16.37
2019-06-20T02:59:00.745Z,16.75
2019-06-20T03:01:32.690Z,17.05
2019-06-20T03:04:04.671Z,13.78
2019-06-20T03:06:36.636Z,15.53
2019-06-20T03:09:08.561Z,14.18
2019-06-20T03:11:40.514Z,15.72
2019-06-20T03:14:12.588Z,16.23
2019-06-20T03:16:44.570Z,16.25
2019-06-20T03:19:16.543Z,18.37
2019-06-20T03:21:48.514Z,16.52
2019-06-20T03:24:20.453Z,15.65
2019-06-20T03:26:52.426Z,16.67
2019-06-20T03:29:24.358Z,18.12
2019-06-20T03:31:56.338Z,17.75
2019-06-20T03:34:28.236Z,19.57
2019-06-20T03:37:00.193Z,17.02
2019-06-20T03:39:32.121Z,18.37
2019-06-20T03:42:04.099Z,18.52
2019-06-20T03:44:36.045Z,18.60
2019-06-20T03:47:08.028Z,17.82
2019-06-20T03:49:39.957Z,18.57
2019-06-20T03:52:11.934Z,19.57
2019-06-20T03:54:43.977Z,18.45
2019-06-20T03:57:15.988Z,18.98
2019-06-20T03:59:47.921Z,20.43
2019-06-20T04:02:19.886Z,17.52
2019-06-20T04:04:51.861Z,18.62
2019-06-20T04:07:23.863Z,18.02
2019-06-20T04:09:55.854Z,18.37
2019-06-20T04:12:27.800Z,16.73
2019-06-20T04:14:59.780Z,18.30
2019-06-20T04:17:31.767Z,18.75
2019-06-20T04:20:04.025Z,17.02
2019-06-20T04:22:36.018Z,17.12
2019-06-20T04:25:07.986Z,16.10
2019-06-20T04:27:39.934Z,18.95
2019-06-20T04:30:11.897Z,16.90
2019-06-20T04:32:44.121Z,18.10
2019-06-20T04:35:16.085Z,18.05
2019-06-20T04:37:48.204Z,15.75
2019-06-20T04:40:20.217Z,14.10
2019-06-20T04:42:52.229Z,19.20
2019-06-20T04:45:35.049Z,14.00
2019-06-20T04:48:05.048Z,12.70
2019-06-20T04:50:37.144Z,13.72
2019-06-20T04:53:09.109Z,14.70
2019-06-20T04:55:41.074Z,11.65
2019-06-20T04:58:13.044Z,14.83
2019-06-20T05:00:44.989Z,12.30
2019-06-20T05:03:16.990Z,12.33
2019-06-20T05:05:48.908Z,12.37
2019-06-20T05:08:20.873Z,11.75
2019-06-20T05:10:52.831Z,11.25
2019-06-20T05:13:24.935Z,12.73
2019-06-20T05:15:56.906Z,13.38
2019-06-20T05:18:28.918Z,11.88
2019-06-20T05:21:00.865Z,15.15
2019-06-20T05:23:32.839Z,13.48
2019-06-20T05:26:04.826Z,14.70
2019-06-20T05:28:36.746Z,12.78
2019-06-20T05:31:08.716Z,11.38
2019-06-20T05:33:40.669Z,12.68
2019-06-20T05:36:12.616Z,12.03
2019-06-20T05:38:44.581Z,12.78
2019-06-20T05:41:16.563Z,13.55
2019-06-20T05:43:48.519Z,11.08
2019-06-20T05:46:20.487Z,12.37
2019-06-20T05:48:52.462Z,10.50
2019-06-20T05:51:24.443Z,11.53
2019-06-20T05:53:56.832Z,11.73
2019-06-20T05:56:28.829Z,11.43
2019-06-20T05:59:00.746Z,10.80
2019-06-20T06:01:32.723Z,11.83
2019-06-20T06:04:04.795Z,11.15
2019-06-20T06:06:36.808Z,12.40
2019-06-20T06:09:17.338Z,10.88
2019-06-20T06:11:49.354Z,11.40
2019-06-20T06:14:21.309Z,11.12
2019-06-20T06:16:53.325Z,10.00
2019-06-20T06:19:32.058Z,9.10
2019-06-20T06:22:04.054Z,10.15
2019-06-20T06:24:36.026Z,8.78
2019-06-20T06:27:08.011Z,7.87
2019-06-20T06:29:39.983Z,7.42
2019-06-20T06:32:11.948Z,7.83
2019-06-20T06:34:43.930Z,6.75
2019-06-20T06:37:15.907Z,6.20
2019-06-20T06:39:47.837Z,6.65
2019-06-20T06:42:20.084Z,5.90
2019-06-20T06:44:52.036Z,5.20
2019-06-20T06:47:24.077Z,4.50
2019-06-20T06:49:56.076Z,5.22
2019-06-20T06:52:28.222Z,3.92
2019-06-20T06:55:00.326Z,4.03
2019-06-20T06:57:32.292Z,4.45
2019-06-20T07:00:06.904Z,4.05
2019-06-20T07:02:38.897Z,3.80
2019-06-20T07:05:11.442Z,3.60
2019-06-20T07:07:43.405Z,3.65
2019-06-20T07:10:15.678Z,4.55
2019-06-20T07:12:47.639Z,3.50
2019-06-20T07:15:20.397Z,3.10
2019-06-20T07:17:52.407Z,3.35
2019-06-20T07:20:24.386Z,2.85
2019-06-20T07:22:56.412Z,4.08
2019-06-20T07:25:28.412Z,3.30
2019-06-20T07:28:00.402Z,3.40
2019-06-20T07:30:32.463Z,3.08
2019-06-20T07:33:04.493Z,3.40
2019-06-20T07:35:36.611Z,4.08
2019-06-20T07:38:08.574Z,3.92
2019-06-20T07:40:40.563Z,3.50
2019-06-20T07:43:12.546Z,3.98
2019-06-20T07:45:58.474Z,3.75
2019-06-20T07:48:18.469Z,3.40
2019-06-20T07:50:50.432Z,2.95
2019-06-20T07:53:22.434Z,3.22
2019-06-20T07:55:54.437Z,3.15
2019-06-20T07:58:26.403Z,3.77
2019-06-20T08:00:58.373Z,3.22
2019-06-20T08:03:30.367Z,3.30
2019-06-20T08:06:02.380Z,3.00
2019-06-20T08:08:36.932Z,3.20
2019-06-20T08:11:08.929Z,2.75
2019-06-20T08:13:42.651Z,2.83
2019-06-20T08:16:14.725Z,2.87
2019-06-20T08:18:46.714Z,2.77
2019-06-20T08:21:18.699Z,2.62
2019-06-20T08:23:50.692Z,2.90
2019-06-20T08:26:22.675Z,3.05
2019-06-20T08:29:10.508Z,2.62
2019-06-20T08:31:28.586Z,2.37
2019-06-20T08:34:00.568Z,2.33
2019-06-20T08:36:32.555Z,2.50
2019-06-20T08:39:07.758Z,2.95
2019-06-20T08:41:39.765Z,2.80
2019-06-20T08:44:11.729Z,2.75
2019-06-20T08:46:43.700Z,2.47
2019-06-20T08:49:15.778Z,2.60
2019-06-20T08:51:47.791Z,3.60
2019-06-20T08:54:19.765Z,2.35
2019-06-20T08:56:51.755Z,2.67
2019-06-20T08:59:24.879Z,2.70
2019-06-20T09:01:58.791Z,2.60
2019-06-20T09:04:30.955Z,2.30
2019-06-20T09:09:36.072Z,2.50
2019-06-20T09:12:08.043Z,2.58
2019-06-20T09:14:40.056Z,2.52
2019-06-20T09:17:12.110Z,2.80
2019-06-20T09:19:44.072Z,2.58
2019-06-20T09:22:16.076Z,2.60
2019-06-20T09:24:48.084Z,2.52
2019-06-20T09:27:20.153Z,2.50
2019-06-20T09:29:53.260Z,2.80
2019-06-20T09:32:26.059Z,2.70
2019-06-20T09:34:58.690Z,2.70
2019-06-20T09:37:30.802Z,2.80
2019-06-20T09:40:03.763Z,2.70
2019-06-20T09:42:36.923Z,2.72
2019-06-20T09:45:09.273Z,2.85
2019-06-20T09:47:41.619Z,2.40
2019-06-20T09:50:14.244Z,2.75
2019-06-20T09:52:49.787Z,2.70
2019-06-20T09:55:20.195Z,3.72
2019-06-20T09:57:53.622Z,2.92
2019-06-20T10:00:26.380Z,2.40
2019-06-20T10:02:58.476Z,2.65
2019-06-20T10:05:30.510Z,2.60
2019-06-20T10:08:02.585Z,2.67
2019-06-20T10:10:35.177Z,2.80
2019-06-20T10:13:07.217Z,2.67
2019-06-20T10:15:41.053Z,2.90
2019-06-20T10:18:13.051Z,2.75
2019-06-20T10:20:46.096Z,2.62
2019-06-20T10:23:19.093Z,2.30
2019-06-20T10:25:51.509Z,2.35
2019-06-20T10:28:23.698Z,2.62
2019-06-20T10:30:55.958Z,2.60
2019-06-20T10:33:29.536Z,2.60
2019-06-20T10:36:01.543Z,2.58
2019-06-20T10:38:33.550Z,2.42
2019-06-20T10:41:05.536Z,2.60
2019-06-20T10:43:37.558Z,2.83
2019-06-20T10:46:09.593Z,2.35
2019-06-20T10:48:42.620Z,2.52
2019-06-20T10:51:50.269Z,2.45
2019-06-20T10:54:22.343Z,2.55
2019-06-20T10:56:54.362Z,2.33
2019-06-20T10:59:26.350Z,2.45
2019-06-20T11:01:58.356Z,2.65
2019-06-20T11:04:30.315Z,2.72
2019-06-20T11:07:02.327Z,3.02
2019-06-20T11:09:34.336Z,3.02
2019-06-20T11:12:06.344Z,2.40
2019-06-20T11:14:39.146Z,2.85
2019-06-20T11:17:12.300Z,2.67
2019-06-20T11:19:45.753Z,2.50
2019-06-20T11:22:17.980Z,2.22
2019-06-20T11:24:49.995Z,2.25
2019-06-20T11:27:22.015Z,2.95
2019-06-20T11:29:54.001Z,2.75
2019-06-20T11:32:26.068Z,2.45
2019-06-20T11:34:58.079Z,2.50
2019-06-20T11:37:30.122Z,2.52
2019-06-20T11:40:02.233Z,2.35
2019-06-20T11:42:34.698Z,2.37
2019-06-20T11:45:08.405Z,2.30
2019-06-20T11:47:40.560Z,2.20
2019-06-20T11:50:13.731Z,2.10
2019-06-20T11:52:46.016Z,2.60
2019-06-20T11:55:19.952Z,2.37
2019-06-20T11:57:51.997Z,2.62
2019-06-20T12:00:24.191Z,2.40
2019-06-20T12:02:56.201Z,3.08
2019-06-20T12:05:28.240Z,2.10
2019-06-20T12:08:00.316Z,2.12
2019-06-20T12:10:32.339Z,2.60
2019-06-20T12:13:04.320Z,2.17
2019-06-20T12:15:36.318Z,2.77
2019-06-20T12:18:08.364Z,1.72
2019-06-20T12:20:41.132Z,1.65
2019-06-20T12:23:13.604Z,1.75
2019-06-20T12:25:46.557Z,1.70
2019-06-20T12:28:20.303Z,2.08
2019-06-20T12:30:52.356Z,1.80
2019-06-20T12:33:24.344Z,1.95
2019-06-20T12:35:56.370Z,1.82
2019-06-20T12:38:28.373Z,1.90
2019-06-20T12:41:00.411Z,1.85
2019-06-20T12:43:32.419Z,2.02
2019-06-20T12:46:04.486Z,1.60
2019-06-20T12:48:36.523Z,1.92
2019-06-20T12:51:08.535Z,1.98
2019-06-20T12:53:41.893Z,2.12
2019-06-20T12:56:14.069Z,2.15
2019-06-20T12:58:46.678Z,3.35
2019-06-20T13:01:34.257Z,2.20
2019-06-20T13:03:52.884Z,2.25
2019-06-20T13:06:25.044Z,7.58
2019-06-20T13:08:57.094Z,3.10
2019-06-20T13:11:29.112Z,3.25
2019-06-20T13:14:01.145Z,3.30
2019-06-20T13:16:34.048Z,3.17
2019-06-20T13:19:06.011Z,3.33
2019-06-20T13:21:39.281Z,2.90
2019-06-20T13:24:11.963Z,2.62
2019-06-20T13:26:44.063Z,3.55
2019-06-20T13:29:16.035Z,3.70
2019-06-20T13:32:01.885Z,4.40
2019-06-20T13:34:21.930Z,3.47
2019-06-20T13:36:53.968Z,3.45
2019-06-20T13:39:25.948Z,3.70
2019-06-20T13:41:57.971Z,3.67
2019-06-20T13:44:29.995Z,3.67
2019-06-20T13:47:02.024Z,3.00
2019-06-20T13:49:33.982Z,3.50
2019-06-20T13:52:06.020Z,3.25
2019-06-20T13:54:39.660Z,3.22
2019-06-20T13:57:11.944Z,3.15
2019-06-20T13:59:43.933Z,3.02
2019-06-20T14:02:15.965Z,3.40
2019-06-20T14:04:48.353Z,3.47
2019-06-20T14:07:20.399Z,3.30
2019-06-20T14:09:52.398Z,3.50
2019-06-20T14:12:24.406Z,4.97
2019-06-20T14:14:56.429Z,4.17
2019-06-20T14:17:28.489Z,3.70
2019-06-20T14:20:00.517Z,3.50
2019-06-20T14:22:32.577Z,3.37
2019-06-20T14:25:04.832Z,3.10
2019-06-20T14:27:36.852Z,3.58
2019-06-20T14:30:09.273Z,3.42
2019-06-20T14:32:41.504Z,3.52
2019-06-20T14:35:16.378Z,3.85
2019-06-20T14:37:49.624Z,4.45
2019-06-20T14:40:22.464Z,3.55
2019-06-20T14:42:54.523Z,3.30
2019-06-20T14:45:26.510Z,3.60
2019-06-20T14:47:58.460Z,4.00
2019-06-20T14:50:30.490Z,3.15
2019-06-20T14:53:02.463Z,2.95
2019-06-20T14:55:34.488Z,3.37
2019-06-20T14:58:06.565Z,3.40
2019-06-20T15:00:38.680Z,3.30
2019-06-20T15:03:10.694Z,3.83
2019-06-20T15:05:44.768Z,4.72
2019-06-20T15:08:16.662Z,2.90
2019-06-20T15:10:50.122Z,3.22
2019-06-20T15:13:22.275Z,2.50
2019-06-20T15:15:55.385Z,2.42
2019-06-20T15:18:27.572Z,2.10
2019-06-20T15:20:59.635Z,2.10
2019-06-20T15:23:31.593Z,2.02
2019-06-20T15:26:03.669Z,2.33
2019-06-20T15:28:35.670Z,2.30
2019-06-20T15:31:07.677Z,2.40
2019-06-20T15:33:39.655Z,2.55
2019-06-20T15:36:11.680Z,3.62
2019-06-20T15:38:43.668Z,3.85
2019-06-20T15:41:15.755Z,4.75
2019-06-20T15:43:48.587Z,2.72
2019-06-20T15:46:21.695Z,2.50
2019-06-20T15:48:53.696Z,3.10
2019-06-20T15:51:25.735Z,2.85
2019-06-20T15:53:57.746Z,2.98
2019-06-20T15:56:29.816Z,2.62
2019-06-20T15:59:01.803Z,2.55
2019-06-20T16:01:33.814Z,2.85
2019-06-20T16:04:05.831Z,2.80
2019-06-20T16:06:37.822Z,2.35
2019-06-20T16:09:09.812Z,2.75
2019-06-20T16:11:41.807Z,3.10
2019-06-20T16:14:13.797Z,2.92
2019-06-20T16:16:45.822Z,2.98
2019-06-20T16:19:17.885Z,2.70
2019-06-20T16:21:49.890Z,3.17
2019-06-20T16:24:21.993Z,3.62
2019-06-20T16:26:54.299Z,3.10
2019-06-20T16:29:26.295Z,3.47
2019-06-20T16:31:58.299Z,3.20
2019-06-20T16:34:30.297Z,3.02
2019-06-20T16:37:09.982Z,4.10
2019-06-20T16:39:36.276Z,13.08
2019-06-20T16:42:08.307Z,3.72
2019-06-20T16:44:40.332Z,3.17
2019-06-20T16:47:12.380Z,5.10
2019-06-20T16:49:44.376Z,12.70
2019-06-20T16:52:16.399Z,4.90
2019-06-20T16:54:48.365Z,3.52
2019-06-20T16:57:20.422Z,3.30
2019-06-20T16:59:52.464Z,3.62
2019-06-20T17:02:24.474Z,5.62
2019-06-20T17:04:56.778Z,3.90
2019-06-20T17:07:28.807Z,18.15
2019-06-20T17:10:00.879Z,4.47
2019-06-20T17:12:32.884Z,3.27
2019-06-20T17:15:05.323Z,2.95
2019-06-20T17:17:37.437Z,3.17
2019-06-20T17:20:09.719Z,2.83
2019-06-20T17:22:41.850Z,3.58
2019-06-20T17:25:14.386Z,3.20
2019-06-20T17:27:46.415Z,3.27
2019-06-20T17:30:19.240Z,3.17
2019-06-20T17:32:51.298Z,3.50
2019-06-20T17:35:23.324Z,3.77
2019-06-20T17:37:55.364Z,3.83
2019-06-20T17:40:27.604Z,4.05
2019-06-20T17:42:59.644Z,4.10
2019-06-20T17:45:31.710Z,3.83
2019-06-20T17:48:03.894Z,3.75
2019-06-20T17:50:35.980Z,2.77
2019-06-20T17:53:07.995Z,3.15
2019-06-20T17:55:40.055Z,3.33
2019-06-20T17:58:12.092Z,2.95
2019-06-20T18:00:44.160Z,3.62
2019-06-20T18:03:16.183Z,3.60
2019-06-20T18:05:48.240Z,3.67
2019-06-20T18:08:20.266Z,4.75
2019-06-20T18:10:52.329Z,4.00
2019-06-20T18:13:24.275Z,5.37
2019-06-20T18:15:56.366Z,4.87
2019-06-20T18:18:28.364Z,4.47
2019-06-20T18:21:00.373Z,4.72
2019-06-20T18:23:37.651Z,4.30
2019-06-20T18:26:09.811Z,11.75
2019-06-20T18:28:41.797Z,6.30
2019-06-20T18:31:13.939Z,4.62
2019-06-20T18:33:45.906Z,5.05
2019-06-20T18:36:17.964Z,4.30
2019-06-20T18:38:50.001Z,4.70
2019-06-20T18:41:22.066Z,5.87
2019-06-20T18:43:54.088Z,4.97
2019-06-20T18:46:26.157Z,4.30
2019-06-20T18:48:58.203Z,6.10
2019-06-20T18:51:30.252Z,4.45
2019-06-20T18:54:02.281Z,5.25
2019-06-20T18:56:34.332Z,4.62
2019-06-20T18:59:06.400Z,4.60
2019-06-20T19:01:38.509Z,5.25
2019-06-20T19:04:10.522Z,5.17
2019-06-20T19:06:42.603Z,4.87
2019-06-20T19:09:14.644Z,5.22
2019-06-20T19:11:46.749Z,4.83
2019-06-20T19:14:18.768Z,5.05
2019-06-20T19:16:50.927Z,5.85
2019-06-20T19:19:22.937Z,5.15
2019-06-20T19:21:54.961Z,5.15
2019-06-20T19:24:27.027Z,5.08
2019-06-20T19:26:59.064Z,5.40
2019-06-20T19:29:31.126Z,5.53
2019-06-20T19:32:03.148Z,5.22
2019-06-20T19:34:35.206Z,5.12
2019-06-20T19:37:07.261Z,6.22
2019-06-20T19:39:39.283Z,6.35
2019-06-20T19:42:11.263Z,5.97
2019-06-20T19:44:43.321Z,6.40
2019-06-20T19:47:15.352Z,6.37
2019-06-20T19:49:47.453Z,6.10
2019-06-20T19:52:19.467Z,6.67
2019-06-20T19:54:51.516Z,7.30
2019-06-20T19:57:23.561Z,7.72
2019-06-20T19:59:55.594Z,8.25
2019-06-20T20:02:27.671Z,8.03
2019-06-20T20:04:59.724Z,7.92
2019-06-20T20:07:31.795Z,7.22
2019-06-20T20:10:04.676Z,7.08
2019-06-20T20:12:36.727Z,6.35
2019-06-20T20:15:08.805Z,6.85
2019-06-20T20:17:40.833Z,6.10
2019-06-20T20:20:13.102Z,5.35
2019-06-20T20:22:45.093Z,6.20
2019-06-20T20:25:17.158Z,6.25
2019-06-20T20:27:49.221Z,5.67
2019-06-20T20:30:21.671Z,5.80
2019-06-20T20:32:56.969Z,6.45
2019-06-20T20:35:35.371Z,5.47
2019-06-20T20:38:03.201Z,5.42
2019-06-20T20:40:35.330Z,6.00
2019-06-20T20:43:07.368Z,5.90
2019-06-20T20:45:39.829Z,6.08
2019-06-20T20:48:11.939Z,6.08
2019-06-20T20:50:44.063Z,6.28
2019-06-20T20:53:16.766Z,5.67
2019-06-20T20:55:53.377Z,5.70
2019-06-20T20:58:26.474Z,5.05
2019-06-20T21:01:09.240Z,5.17
2019-06-20T21:03:41.278Z,5.62
2019-06-20T21:06:13.332Z,5.42
2019-06-20T21:08:45.372Z,5.40
2019-06-20T21:11:17.414Z,4.53
2019-06-20T21:13:49.453Z,5.75
2019-06-20T21:16:21.539Z,5.67
2019-06-20T21:18:53.546Z,5.25
2019-06-20T21:21:25.549Z,5.53
2019-06-20T21:23:57.652Z,7.30
2019-06-20T21:26:29.700Z,8.18
2019-06-20T21:29:01.687Z,8.58
2019-06-20T21:31:33.744Z,5.45
2019-06-20T21:34:05.756Z,6.22
2019-06-20T21:36:37.835Z,6.00
2019-06-20T21:39:09.887Z,5.70
2019-06-20T21:41:41.914Z,4.83
2019-06-20T21:44:13.937Z,6.45
2019-06-20T21:46:46.011Z,4.72
2019-06-20T21:49:17.988Z,4.40
2019-06-20T21:51:50.036Z,4.42
2019-06-20T21:54:22.040Z,4.85
2019-06-20T21:56:54.100Z,5.03
2019-06-20T21:59:26.138Z,5.47
2019-06-20T22:01:58.164Z,5.10
2019-06-20T22:04:30.370Z,5.05
2019-06-20T22:07:02.434Z,4.92
2019-06-20T22:09:34.991Z,4.65
2019-06-20T22:12:06.976Z,5.30
2019-06-20T22:14:38.958Z,6.20
2019-06-20T22:17:10.936Z,6.03
2019-06-20T22:19:42.952Z,5.28
2019-06-20T22:22:14.935Z,5.60
2019-06-20T22:24:46.939Z,7.62
2019-06-20T22:27:18.954Z,5.90
2019-06-20T22:29:50.981Z,5.25
2019-06-20T22:32:22.972Z,6.25
2019-06-20T22:34:54.996Z,6.12
2019-06-20T22:37:26.963Z,5.83
2019-06-20T22:39:58.966Z,5.83
2019-06-20T22:42:30.972Z,5.67
2019-06-20T22:45:06.726Z,6.40
2019-06-20T22:47:37.229Z,5.80
2019-06-20T22:50:09.562Z,5.47
2019-06-20T22:52:41.524Z,5.28
2019-06-20T22:55:13.782Z,5.90
2019-06-20T22:57:45.767Z,5.67
2019-06-20T23:00:17.778Z,5.83
2019-06-20T23:02:49.768Z,5.55
2019-06-20T23:05:21.744Z,7.67
2019-06-20T23:07:53.710Z,6.85
2019-06-20T23:10:25.701Z,6.00
2019-06-20T23:12:57.665Z,5.15
2019-06-20T23:15:29.645Z,5.90
2019-06-20T23:18:01.632Z,5.08
2019-06-20T23:20:33.676Z,7.40
2019-06-20T23:23:05.647Z,5.25
2019-06-20T23:25:39.885Z,6.20
2019-06-20T23:28:11.820Z,6.42
2019-06-20T23:30:43.821Z,6.08
2019-06-20T23:33:15.781Z,6.00
2019-06-20T23:35:47.763Z,5.83
2019-06-20T23:38:19.701Z,5.75
2019-06-20T23:40:51.704Z,5.47
2019-06-20T23:43:23.687Z,6.30
2019-06-20T23:45:55.678Z,4.78
2019-06-20T23:48:27.635Z,5.28
2019-06-20T23:50:59.609Z,4.90
2019-06-20T23:53:31.539Z,4.78
2019-06-20T23:56:07.135Z,5.45
2019-06-20T23:58:37.438Z,5.62
